Time;durP1;ratioP1;P1;durP2;ratioP2;P2;SDS_P1;SDS_P2;PMS_P1;PMS_P2;Temp;Humidity;BMP_temperature;BMP_pressure;BME280_temperature;BME280_humidity;BME280_pressure;Samples;Min_cycle;Max_cycle;Signal;HPM_P1;HPM_P2
2022/02/27 00:01:14;;;;;;;;;;;21.80;31.60;;;;;;473633;252;1826;-40
2022/02/27 00:03:15;;;;;;;;;;;21.80;31.60;;;;;;473859;251;1210;-40
2022/02/27 00:05:16;;;;;;;;;;;21.70;31.60;;;;;;476472;249;1099;-40
2022/02/27 00:07:18;;;;;;;;;;;21.70;31.60;;;;;;473315;252;1162;-40
2022/02/27 00:09:19;;;;;;;;;;;21.70;31.60;;;;;;474204;251;1079;-40
2022/02/27 00:11:21;;;;;;;;;;;21.70;31.60;;;;;;476435;249;1153;-40
2022/02/27 00:13:22;;;;;;;;;;;21.70;31.60;;;;;;473407;252;1039;-40
2022/02/27 00:15:23;;;;;;;;;;;21.70;31.60;;;;;;473901;251;1054;-40
2022/02/27 00:17:24;;;;;;;;;;;21.80;31.60;;;;;;475950;249;1306;-40
2022/02/27 00:19:26;;;;;;;;;;;21.70;31.50;;;;;;473386;252;2194;-40
2022/02/27 00:21:27;;;;;;;;;;;21.70;31.60;;;;;;473765;251;1443;-40
2022/02/27 00:23:28;;;;;;;;;;;21.80;31.60;;;;;;476183;249;1115;-40
2022/02/27 00:25:30;;;;;;;;;;;21.70;31.50;;;;;;473773;252;1071;-40
2022/02/27 00:27:31;;;;;;;;;;;21.70;31.60;;;;;;473716;251;1213;-40
2022/02/27 00:29:32;;;;;;;;;;;21.70;31.50;;;;;;476069;249;1195;-40
2022/02/27 00:31:34;;;;;;;;;;;21.70;31.50;;;;;;473527;252;3136;-40
2022/02/27 00:33:35;;;;;;;;;;;21.70;31.50;;;;;;474208;251;1070;-40
2022/02/27 00:35:36;;;;;;;;;;;21.70;31.50;;;;;;476217;249;1037;-40
2022/02/27 00:37:38;;;;;;;;;;;21.70;31.50;;;;;;473437;252;1193;-40
2022/02/27 00:39:39;;;;;;;;;;;21.70;31.60;;;;;;473727;251;2178;-40
2022/02/27 00:41:40;;;;;;;;;;;21.70;31.60;;;;;;476001;249;1521;-40
2022/02/27 00:43:42;;;;;;;;;;;21.60;31.60;;;;;;473343;252;999;-40
2022/02/27 00:45:43;;;;;;;;;;;21.70;31.60;;;;;;473754;251;1509;-40
2022/02/27 00:47:44;;;;;;;;;;;21.70;31.50;;;;;;476076;249;1218;-40
2022/02/27 00:49:45;;;;;;;;;;;21.70;31.60;;;;;;473750;252;1094;-40
2022/02/27 00:51:47;;;;;;;;;;;21.70;31.50;;;;;;473915;251;1142;-40
2022/02/27 00:53:48;;;;;;;;;;;21.70;31.50;;;;;;476460;249;1080;-40
2022/02/27 00:55:49;;;;;;;;;;;21.70;31.50;;;;;;473741;252;1485;-40
2022/02/27 00:57:51;;;;;;;;;;;21.70;31.60;;;;;;473743;251;1186;-40
2022/02/27 00:59:52;;;;;;;;;;;21.70;31.60;;;;;;476457;249;2195;-40
2022/02/27 01:01:53;;;;;;;;;;;21.70;31.60;;;;;;473273;252;1246;-40
2022/02/27 01:03:55;;;;;;;;;;;21.70;31.50;;;;;;473716;251;1094;-40
2022/02/27 01:05:56;;;;;;;;;;;21.70;31.60;;;;;;476311;249;1328;-40
2022/02/27 01:07:58;;;;;;;;;;;21.70;31.50;;;;;;473716;252;1201;-40
2022/02/27 01:09:59;;;;;;;;;;;21.70;31.50;;;;;;473789;251;1043;-40
2022/02/27 01:12:00;;;;;;;;;;;21.70;31.50;;;;;;476413;249;1240;-40
2022/02/27 01:14:02;;;;;;;;;;;21.70;31.60;;;;;;473778;252;1040;-40
2022/02/27 01:16:04;;;;;;;;;;;21.70;31.50;;;;;;473893;251;1370;-39
2022/02/27 01:18:04;;;;;;;;;;;21.70;31.60;;;;;;475965;249;2172;-40
2022/02/27 01:20:06;;;;;;;;;;;21.70;31.60;;;;;;473777;252;2194;-40
2022/02/27 01:22:07;;;;;;;;;;;21.70;31.50;;;;;;473917;251;1269;-40
2022/02/27 01:24:08;;;;;;;;;;;21.70;31.40;;;;;;476469;249;988;-40
2022/02/27 01:26:10;;;;;;;;;;;21.70;31.50;;;;;;473287;252;1185;-40
2022/02/27 01:28:11;;;;;;;;;;;21.70;31.60;;;;;;473754;251;1152;-40
2022/02/27 01:30:12;;;;;;;;;;;21.70;31.50;;;;;;475984;249;1222;-40
2022/02/27 01:32:14;;;;;;;;;;;21.70;31.50;;;;;;473536;252;1383;-40
2022/02/27 01:34:15;;;;;;;;;;;21.70;31.50;;;;;;473896;251;1064;-40
2022/02/27 01:36:17;;;;;;;;;;;21.70;31.50;;;;;;475985;249;1207;-40
2022/02/27 01:38:18;;;;;;;;;;;21.70;31.50;;;;;;473548;252;2200;-40
2022/02/27 01:40:19;;;;;;;;;;;21.70;31.50;;;;;;474124;251;2130;-40
2022/02/27 01:42:20;;;;;;;;;;;21.70;31.50;;;;;;475943;249;1318;-40
2022/02/27 01:44:22;;;;;;;;;;;21.70;31.50;;;;;;473745;252;1131;-40
2022/02/27 01:46:23;;;;;;;;;;;21.70;31.50;;;;;;473904;251;1360;-40
2022/02/27 01:48:24;;;;;;;;;;;21.70;31.50;;;;;;476004;249;1206;-40
2022/02/27 01:50:26;;;;;;;;;;;21.70;31.40;;;;;;473707;252;1288;-40
2022/02/27 01:52:27;;;;;;;;;;;21.60;31.50;;;;;;473703;251;1177;-40
2022/02/27 01:54:29;;;;;;;;;;;21.70;31.50;;;;;;476070;249;1156;-40
2022/02/27 01:56:30;;;;;;;;;;;21.70;31.50;;;;;;473262;252;1303;-40
2022/02/27 01:58:31;;;;;;;;;;;21.70;31.50;;;;;;473964;251;1194;-40
2022/02/27 02:00:33;;;;;;;;;;;21.70;31.50;;;;;;476504;246;2136;-39
2022/02/27 02:02:34;;;;;;;;;;;21.70;31.50;;;;;;473698;252;1217;-40
2022/02/27 02:04:35;;;;;;;;;;;21.70;31.60;;;;;;473892;251;1092;-40
2022/02/27 02:06:37;;;;;;;;;;;21.60;31.50;;;;;;476033;249;1183;-40
2022/02/27 02:08:38;;;;;;;;;;;21.70;31.50;;;;;;473437;252;2362;-40
2022/02/27 02:10:39;;;;;;;;;;;21.70;31.50;;;;;;473896;251;1228;-40
2022/02/27 02:12:41;;;;;;;;;;;21.70;31.40;;;;;;476434;249;1202;-40
2022/02/27 02:14:42;;;;;;;;;;;21.70;31.40;;;;;;473720;252;1032;-40
2022/02/27 02:16:44;;;;;;;;;;;21.70;31.50;;;;;;473951;251;1308;-40
2022/02/27 02:18:46;;;;;;;;;;;21.70;31.40;;;;;;476029;249;1276;-40
2022/02/27 02:20:47;;;;;;;;;;;21.70;31.50;;;;;;473310;252;2206;-40
2022/02/27 02:22:48;;;;;;;;;;;21.60;31.50;;;;;;474138;251;1179;-40
2022/02/27 02:24:50;;;;;;;;;;;21.70;31.50;;;;;;476073;249;1094;-40
2022/02/27 02:26:51;;;;;;;;;;;21.70;31.50;;;;;;473698;252;1185;-40
2022/02/27 02:28:52;;;;;;;;;;;21.70;31.50;;;;;;474047;251;1055;-40
2022/02/27 02:30:54;;;;;;;;;;;21.60;31.50;;;;;;476034;249;1268;-40
2022/02/27 02:32:55;;;;;;;;;;;21.60;31.50;;;;;;473543;252;1214;-40
2022/02/27 02:34:57;;;;;;;;;;;21.70;31.50;;;;;;474195;251;1005;-40
2022/02/27 02:36:58;;;;;;;;;;;21.70;31.50;;;;;;476079;249;1226;-40
2022/02/27 02:38:59;;;;;;;;;;;21.70;31.50;;;;;;473338;252;1061;-39
2022/02/27 02:41:00;;;;;;;;;;;21.60;31.50;;;;;;474115;251;2114;-40
2022/02/27 02:43:02;;;;;;;;;;;21.60;31.40;;;;;;476004;249;1380;-40
2022/02/27 02:45:03;;;;;;;;;;;21.70;31.50;;;;;;473769;252;1297;-40
2022/02/27 02:47:05;;;;;;;;;;;21.60;31.40;;;;;;473866;251;1205;-40
2022/02/27 02:49:06;;;;;;;;;;;21.60;31.40;;;;;;476051;249;1168;-40
2022/02/27 02:51:07;;;;;;;;;;;21.70;31.50;;;;;;473688;252;1338;-40
2022/02/27 02:53:09;;;;;;;;;;;21.70;31.40;;;;;;473943;251;1340;-40
2022/02/27 02:55:10;;;;;;;;;;;21.70;31.40;;;;;;476242;249;1072;-40
2022/02/27 02:57:11;;;;;;;;;;;21.70;31.50;;;;;;473192;252;1350;-40
2022/02/27 02:59:13;;;;;;;;;;;21.70;31.50;;;;;;473755;251;1156;-40
2022/02/27 03:01:14;;;;;;;;;;;21.70;31.50;;;;;;476464;249;2124;-40
2022/02/27 03:03:15;;;;;;;;;;;21.70;31.50;;;;;;473420;252;1242;-40
2022/02/27 03:05:17;;;;;;;;;;;21.70;31.40;;;;;;474155;251;1003;-40
2022/02/27 03:07:18;;;;;;;;;;;21.70;31.50;;;;;;476077;249;1352;-40
2022/02/27 03:09:19;;;;;;;;;;;21.70;31.40;;;;;;473763;252;1109;-40
2022/02/27 03:11:21;;;;;;;;;;;21.70;31.50;;;;;;474139;251;1123;-40
2022/02/27 03:13:22;;;;;;;;;;;21.70;31.40;;;;;;476182;249;1588;-40
2022/02/27 03:15:23;;;;;;;;;;;21.70;31.50;;;;;;473335;252;1076;-40
2022/02/27 03:17:24;;;;;;;;;;;21.70;31.40;;;;;;473613;251;1204;-40
2022/02/27 03:19:26;;;;;;;;;;;21.70;31.40;;;;;;476228;249;1223;-40
2022/02/27 03:21:27;;;;;;;;;;;21.70;31.30;;;;;;473367;252;2115;-40
2022/02/27 03:23:30;;;;;;;;;;;21.70;31.40;;;;;;474170;251;1086;-40
2022/02/27 03:25:30;;;;;;;;;;;21.70;31.40;;;;;;476367;250;2353;-40
2022/02/27 03:27:31;;;;;;;;;;;21.70;31.40;;;;;;473311;252;1308;-40
2022/02/27 03:29:32;;;;;;;;;;;21.70;31.40;;;;;;474155;251;1024;-40
2022/02/27 03:31:34;;;;;;;;;;;21.70;31.50;;;;;;476258;249;1270;-40
2022/02/27 03:33:35;;;;;;;;;;;21.70;31.40;;;;;;473742;252;1160;-40
2022/02/27 03:35:38;;;;;;;;;;;21.70;31.50;;;;;;473705;251;1443;-40
2022/02/27 03:37:38;;;;;;;;;;;21.60;31.40;;;;;;475866;250;2239;-40
2022/02/27 03:39:39;;;;;;;;;;;21.70;31.50;;;;;;473772;252;1130;-40
2022/02/27 03:41:41;;;;;;;;;;;21.60;31.50;;;;;;473748;251;2129;-40
2022/02/27 03:43:42;;;;;;;;;;;21.70;31.50;;;;;;476524;249;1032;-39
2022/02/27 03:45:43;;;;;;;;;;;21.70;31.50;;;;;;473390;252;1165;-40
2022/02/27 03:47:45;;;;;;;;;;;21.70;31.50;;;;;;473629;251;1654;-40
2022/02/27 03:49:46;;;;;;;;;;;21.70;31.50;;;;;;476087;249;1146;-40
2022/02/27 03:51:47;;;;;;;;;;;21.70;31.40;;;;;;473209;252;1199;-40
2022/02/27 03:53:48;;;;;;;;;;;21.70;31.50;;;;;;473719;251;1182;-40
2022/02/27 03:55:50;;;;;;;;;;;21.70;31.50;;;;;;475929;249;1349;-40
2022/02/27 03:57:51;;;;;;;;;;;21.70;31.40;;;;;;473251;252;1208;-40
2022/02/27 03:59:52;;;;;;;;;;;21.70;31.40;;;;;;474172;251;1048;-40
2022/02/27 04:01:54;;;;;;;;;;;21.80;31.40;;;;;;476279;249;2117;-40
2022/02/27 04:03:55;;;;;;;;;;;21.80;31.40;;;;;;473721;252;2931;-40
2022/02/27 04:05:56;;;;;;;;;;;21.70;31.40;;;;;;474168;251;1294;-40
2022/02/27 04:07:58;;;;;;;;;;;21.70;31.40;;;;;;476482;249;1230;-40
2022/02/27 04:09:59;;;;;;;;;;;21.70;31.40;;;;;;473798;252;1228;-40
2022/02/27 04:12:00;;;;;;;;;;;21.70;31.50;;;;;;473742;251;1233;-40
2022/02/27 04:14:02;;;;;;;;;;;21.70;31.40;;;;;;476009;249;1092;-40
2022/02/27 04:16:03;;;;;;;;;;;21.70;31.40;;;;;;473247;252;1378;-40
2022/02/27 04:18:04;;;;;;;;;;;21.70;31.40;;;;;;473712;251;1199;-40
2022/02/27 04:20:06;;;;;;;;;;;21.80;31.40;;;;;;475995;249;1222;-40
2022/02/27 04:22:07;;;;;;;;;;;21.70;31.40;;;;;;473228;252;2194;-40
2022/02/27 04:24:16;;;;;;;;;;;21.70;31.40;;;;;;474155;251;1055;-40
2022/02/27 04:26:18;;;;;;;;;;;21.70;31.40;;;;;;475991;249;1317;-40
2022/02/27 04:28:20;;;;;;;;;;;21.70;31.50;;;;;;473746;252;994;-40
2022/02/27 04:30:21;;;;;;;;;;;21.70;31.50;;;;;;474152;251;1031;-40
2022/02/27 04:32:22;;;;;;;;;;;21.70;31.40;;;;;;476207;249;1238;-40
2022/02/27 04:34:23;;;;;;;;;;;21.70;31.50;;;;;;473298;252;1223;-40
2022/02/27 04:36:25;;;;;;;;;;;21.70;31.50;;;;;;473627;251;1355;-40
2022/02/27 04:38:26;;;;;;;;;;;21.70;31.40;;;;;;476005;249;1080;-40
2022/02/27 04:40:27;;;;;;;;;;;21.70;31.50;;;;;;473268;252;2178;-40
2022/02/27 04:42:29;;;;;;;;;;;21.70;31.50;;;;;;474072;251;1205;-40
2022/02/27 04:44:30;;;;;;;;;;;21.70;31.50;;;;;;476065;249;1042;-40
2022/02/27 04:46:31;;;;;;;;;;;21.70;31.40;;;;;;473449;252;1426;-40
2022/02/27 04:48:33;;;;;;;;;;;21.70;31.40;;;;;;473689;251;984;-40
2022/02/27 04:50:34;;;;;;;;;;;21.70;31.50;;;;;;476067;245;1325;-40
2022/02/27 04:52:35;;;;;;;;;;;21.70;31.50;;;;;;473350;252;1308;-40
2022/02/27 04:54:37;;;;;;;;;;;21.70;31.50;;;;;;473721;251;1059;-40
2022/02/27 04:56:38;;;;;;;;;;;21.60;31.50;;;;;;476235;249;1264;-40
2022/02/27 04:58:39;;;;;;;;;;;21.60;31.50;;;;;;473746;252;1039;-40
2022/02/27 05:00:41;;;;;;;;;;;21.60;31.50;;;;;;474043;251;2182;-40
2022/02/27 05:02:42;;;;;;;;;;;21.60;31.50;;;;;;476091;249;1203;-40
2022/02/27 05:04:43;;;;;;;;;;;21.70;31.50;;;;;;473687;252;1206;-40
2022/02/27 05:06:45;;;;;;;;;;;21.60;31.50;;;;;;473660;251;1311;-40
2022/02/27 05:08:46;;;;;;;;;;;21.70;31.40;;;;;;476129;249;1138;-40
2022/02/27 05:10:47;;;;;;;;;;;21.70;31.50;;;;;;473309;252;1095;-40
2022/02/27 05:12:49;;;;;;;;;;;21.70;31.40;;;;;;473742;251;1201;-40
2022/02/27 05:14:50;;;;;;;;;;;21.70;31.40;;;;;;476379;249;965;-40
2022/02/27 05:16:51;;;;;;;;;;;21.70;31.40;;;;;;473231;252;1329;-39
2022/02/27 05:18:52;;;;;;;;;;;21.70;31.50;;;;;;473727;251;1056;-40
2022/02/27 05:20:54;;;;;;;;;;;21.70;31.40;;;;;;475943;249;2188;-40
2022/02/27 05:22:55;;;;;;;;;;;21.60;31.40;;;;;;473555;252;1158;-40
2022/02/27 05:24:56;;;;;;;;;;;21.70;31.50;;;;;;474196;251;1081;-40
2022/02/27 05:26:58;;;;;;;;;;;21.70;31.40;;;;;;476406;249;1203;-40
2022/02/27 05:28:59;;;;;;;;;;;21.70;31.40;;;;;;473773;252;1069;-40
2022/02/27 05:31:00;;;;;;;;;;;21.70;31.40;;;;;;473721;251;1403;-40
2022/02/27 05:33:02;;;;;;;;;;;21.70;31.40;;;;;;476129;249;1203;-40
2022/02/27 05:35:03;;;;;;;;;;;21.70;31.40;;;;;;473767;252;1229;-40
2022/02/27 05:37:04;;;;;;;;;;;21.60;31.40;;;;;;473601;251;1191;-40
2022/02/27 05:39:06;;;;;;;;;;;21.60;31.40;;;;;;476492;249;1045;-40
2022/02/27 05:41:07;;;;;;;;;;;21.60;31.40;;;;;;473689;252;2131;-40
2022/02/27 05:43:08;;;;;;;;;;;21.70;31.40;;;;;;473800;251;1024;-40
2022/02/27 05:45:11;;;;;;;;;;;21.70;31.40;;;;;;476099;249;1041;-40
2022/02/27 05:47:11;;;;;;;;;;;21.70;31.40;;;;;;473311;252;2306;-40
2022/02/27 05:49:12;;;;;;;;;;;21.70;31.40;;;;;;473760;251;1152;-40
2022/02/27 05:51:13;;;;;;;;;;;21.70;31.40;;;;;;476025;249;1383;-40
2022/02/27 05:53:15;;;;;;;;;;;21.70;31.40;;;;;;473761;252;1221;-40
2022/02/27 05:55:16;;;;;;;;;;;21.70;31.40;;;;;;473980;251;1173;-39
2022/02/27 05:57:17;;;;;;;;;;;21.60;31.40;;;;;;476231;249;1257;-40
2022/02/27 05:59:20;;;;;;;;;;;21.60;31.40;;;;;;473355;252;1212;-40
2022/02/27 06:01:21;;;;;;;;;;;21.70;31.30;;;;;;474115;251;2106;-40
2022/02/27 06:03:22;;;;;;;;;;;21.60;31.40;;;;;;476457;249;970;-39
2022/02/27 06:05:24;;;;;;;;;;;21.60;31.40;;;;;;473397;252;1328;-40
2022/02/27 06:07:25;;;;;;;;;;;21.60;31.40;;;;;;473667;251;1080;-40
2022/02/27 06:09:26;;;;;;;;;;;21.60;31.40;;;;;;476167;249;1025;-40
2022/02/27 06:11:27;;;;;;;;;;;21.60;31.40;;;;;;473715;252;1246;-40
2022/02/27 06:13:29;;;;;;;;;;;21.60;31.40;;;;;;474143;251;1200;-40
2022/02/27 06:15:30;;;;;;;;;;;21.70;31.40;;;;;;476019;249;1111;-40
2022/02/27 06:17:31;;;;;;;;;;;21.70;31.40;;;;;;473260;252;1281;-40
2022/02/27 06:19:33;;;;;;;;;;;21.70;31.30;;;;;;473856;251;1082;-40
2022/02/27 06:21:34;;;;;;;;;;;21.70;31.30;;;;;;475954;249;2194;-39
2022/02/27 06:23:35;;;;;;;;;;;21.60;31.30;;;;;;473745;252;1107;-40
2022/02/27 06:25:37;;;;;;;;;;;21.60;31.30;;;;;;473924;251;1199;-40
2022/02/27 06:27:42;;;;;;;;;;;21.60;31.30;;;;;;476012;249;1404;-39
2022/02/27 06:29:40;;;;;;;;;;;21.60;31.30;;;;;;473598;252;1823;-40
2022/02/27 06:31:41;;;;;;;;;;;21.60;31.40;;;;;;474084;251;1525;-40
2022/02/27 06:33:44;;;;;;;;;;;21.70;31.40;;;;;;476460;249;1153;-40
2022/02/27 06:35:44;;;;;;;;;;;21.70;31.40;;;;;;473606;252;2458;-40
2022/02/27 06:37:45;;;;;;;;;;;21.70;31.30;;;;;;474039;251;1216;-40
2022/02/27 06:39:46;;;;;;;;;;;21.70;31.40;;;;;;476471;249;1297;-40
2022/02/27 06:41:48;;;;;;;;;;;21.60;31.30;;;;;;473230;252;2197;-40
2022/02/27 06:43:49;;;;;;;;;;;21.60;31.30;;;;;;474197;251;1070;-40
2022/02/27 06:45:50;;;;;;;;;;;21.70;31.30;;;;;;476293;249;1263;-40
2022/02/27 06:47:52;;;;;;;;;;;21.70;31.30;;;;;;473375;252;1220;-40
2022/02/27 06:49:53;;;;;;;;;;;21.70;31.20;;;;;;474135;251;1161;-40
2022/02/27 06:51:54;;;;;;;;;;;21.70;31.20;;;;;;476140;249;1197;-40
2022/02/27 06:53:55;;;;;;;;;;;21.70;31.20;;;;;;473347;252;1041;-40
2022/02/27 06:55:57;;;;;;;;;;;21.70;31.30;;;;;;473711;251;1211;-40
2022/02/27 06:57:58;;;;;;;;;;;21.70;31.30;;;;;;476024;249;1162;-40
2022/02/27 06:59:59;;;;;;;;;;;21.70;31.30;;;;;;473329;252;1113;-40
2022/02/27 07:02:01;;;;;;;;;;;21.70;31.30;;;;;;473985;251;2240;-40
2022/02/27 07:04:03;;;;;;;;;;;21.70;31.30;;;;;;475970;249;1200;-40
2022/02/27 07:06:04;;;;;;;;;;;21.70;31.30;;;;;;473726;252;1282;-40
2022/02/27 07:08:05;;;;;;;;;;;21.70;31.30;;;;;;474094;251;1269;-39
2022/02/27 07:10:07;;;;;;;;;;;21.70;31.30;;;;;;476059;249;1118;-40
2022/02/27 07:12:08;;;;;;;;;;;21.70;31.30;;;;;;473485;252;1189;-39
2022/02/27 07:14:09;;;;;;;;;;;21.60;31.30;;;;;;474163;251;1152;-39
2022/02/27 07:16:11;;;;;;;;;;;21.70;31.30;;;;;;476011;249;1144;-40
2022/02/27 07:18:12;;;;;;;;;;;21.70;31.20;;;;;;473573;252;1204;-39
2022/02/27 07:20:13;;;;;;;;;;;21.80;31.20;;;;;;473762;251;1091;-40
2022/02/27 07:22:14;;;;;;;;;;;21.70;31.20;;;;;;475807;249;2404;-40
2022/02/27 07:24:16;;;;;;;;;;;21.70;31.30;;;;;;473744;252;1013;-39
2022/02/27 07:26:17;;;;;;;;;;;21.70;31.30;;;;;;473770;251;1355;-40
2022/02/27 07:28:18;;;;;;;;;;;21.70;31.30;;;;;;475995;249;1250;-40
2022/02/27 07:30:20;;;;;;;;;;;21.70;31.30;;;;;;473775;252;1014;-40
2022/02/27 07:32:21;;;;;;;;;;;21.70;31.30;;;;;;474101;251;1235;-40
2022/02/27 07:34:22;;;;;;;;;;;21.70;31.20;;;;;;476096;249;1046;-40
2022/02/27 07:36:24;;;;;;;;;;;21.70;31.30;;;;;;473662;252;1272;-40
2022/02/27 07:38:25;;;;;;;;;;;21.70;31.30;;;;;;474204;251;1084;-40
2022/02/27 07:40:26;;;;;;;;;;;21.70;31.30;;;;;;476046;245;1375;-40
2022/02/27 07:42:28;;;;;;;;;;;21.70;31.30;;;;;;473527;252;2110;-40
2022/02/27 07:44:29;;;;;;;;;;;21.70;31.30;;;;;;474078;251;1061;-40
2022/02/27 07:46:30;;;;;;;;;;;21.70;31.30;;;;;;476296;249;1364;-40
2022/02/27 07:48:32;;;;;;;;;;;21.70;31.20;;;;;;473391;252;1067;-40
2022/02/27 07:50:33;;;;;;;;;;;21.70;31.20;;;;;;473656;251;1139;-40
2022/02/27 07:52:34;;;;;;;;;;;21.70;31.20;;;;;;476143;249;1148;-40
2022/02/27 07:54:36;;;;;;;;;;;21.70;31.30;;;;;;473302;252;1085;-40
2022/02/27 07:56:37;;;;;;;;;;;21.70;31.30;;;;;;474146;251;1464;-40
2022/02/27 07:58:38;;;;;;;;;;;21.70;31.30;;;;;;476465;249;1086;-40
2022/02/27 08:00:39;;;;;;;;;;;21.70;31.30;;;;;;473316;252;1212;-40
2022/02/27 08:02:41;;;;;;;;;;;21.70;31.30;;;;;;473834;251;2122;-40
2022/02/27 08:04:42;;;;;;;;;;;21.70;31.20;;;;;;476441;249;1047;-40
2022/02/27 08:06:43;;;;;;;;;;;21.70;31.20;;;;;;473641;252;1174;-40
2022/02/27 08:08:45;;;;;;;;;;;21.70;31.30;;;;;;473745;251;1270;-40
2022/02/27 08:10:46;;;;;;;;;;;21.70;31.30;;;;;;476439;249;1277;-40
2022/02/27 08:12:47;;;;;;;;;;;21.70;31.30;;;;;;473246;252;1197;-40
2022/02/27 08:14:49;;;;;;;;;;;21.70;31.30;;;;;;473779;251;1287;-40
2022/02/27 08:16:51;;;;;;;;;;;21.70;31.30;;;;;;475944;249;1459;-39
2022/02/27 08:18:52;;;;;;;;;;;21.70;31.30;;;;;;473728;252;1115;-40
2022/02/27 08:20:53;;;;;;;;;;;21.70;31.30;;;;;;474144;251;1191;-40
2022/02/27 08:22:54;;;;;;;;;;;21.70;31.30;;;;;;476225;249;2191;-40
2022/02/27 08:24:56;;;;;;;;;;;21.70;31.30;;;;;;473340;252;1122;-40
2022/02/27 08:26:57;;;;;;;;;;;21.70;31.30;;;;;;474120;251;1197;-40
2022/02/27 08:28:59;;;;;;;;;;;21.70;31.20;;;;;;476360;249;983;-40
2022/02/27 08:31:00;;;;;;;;;;;21.70;31.30;;;;;;473714;252;1418;-40
2022/02/27 08:33:01;;;;;;;;;;;21.70;31.30;;;;;;474024;251;1269;-40
2022/02/27 08:35:03;;;;;;;;;;;21.70;31.30;;;;;;476212;249;1069;-40
2022/02/27 08:37:04;;;;;;;;;;;21.70;31.30;;;;;;473266;252;1242;-40
2022/02/27 08:39:05;;;;;;;;;;;21.70;31.30;;;;;;473772;251;1229;-40
2022/02/27 08:41:06;;;;;;;;;;;21.70;31.30;;;;;;476323;249;1304;-40
2022/02/27 08:43:09;;;;;;;;;;;21.60;31.40;;;;;;473495;252;2201;-40
2022/02/27 08:45:10;;;;;;;;;;;21.60;31.30;;;;;;474160;251;1050;-40
2022/02/27 08:47:12;;;;;;;;;;;21.70;31.40;;;;;;476426;249;1259;-40
2022/02/27 08:49:13;;;;;;;;;;;21.70;31.30;;;;;;473783;252;1073;-40
2022/02/27 08:51:14;;;;;;;;;;;21.70;31.40;;;;;;474057;251;1264;-40
2022/02/27 08:53:16;;;;;;;;;;;21.70;31.40;;;;;;476239;249;1203;-40
2022/02/27 08:55:17;;;;;;;;;;;21.70;31.30;;;;;;473260;252;1072;-40
2022/02/27 08:57:18;;;;;;;;;;;21.70;31.30;;;;;;473625;251;1211;-40
2022/02/27 08:59:20;;;;;;;;;;;21.60;31.30;;;;;;475978;249;1060;-40
2022/02/27 09:01:21;;;;;;;;;;;21.60;31.30;;;;;;473203;252;1229;-40
2022/02/27 09:03:24;;;;;;;;;;;21.60;31.40;;;;;;474146;251;2127;-40
2022/02/27 09:05:24;;;;;;;;;;;21.70;31.30;;;;;;475922;249;2533;-40
2022/02/27 09:07:26;;;;;;;;;;;21.60;31.40;;;;;;473310;252;1248;-40
2022/02/27 09:09:27;;;;;;;;;;;21.60;31.40;;;;;;473772;251;1293;-40
2022/02/27 09:11:28;;;;;;;;;;;21.60;31.40;;;;;;475935;249;1313;-40
2022/02/27 09:13:30;;;;;;;;;;;21.70;31.40;;;;;;473337;252;1072;-40
2022/02/27 09:15:31;;;;;;;;;;;21.60;31.30;;;;;;474220;251;1067;-40
2022/02/27 09:17:32;;;;;;;;;;;21.60;31.30;;;;;;476155;249;1572;-40
2022/02/27 09:19:34;;;;;;;;;;;21.60;31.40;;;;;;473544;252;1040;-40
2022/02/27 09:21:35;;;;;;;;;;;21.60;31.30;;;;;;474118;244;1523;-40
2022/02/27 09:23:36;;;;;;;;;;;21.60;31.30;;;;;;476023;249;2200;-40
2022/02/27 09:25:38;;;;;;;;;;;21.60;31.30;;;;;;473709;252;1363;-40
2022/02/27 09:27:39;;;;;;;;;;;21.70;31.40;;;;;;473968;251;1199;-40
2022/02/27 09:29:40;;;;;;;;;;;21.70;31.30;;;;;;476427;249;1316;-40
2022/02/27 09:31:42;;;;;;;;;;;21.70;31.20;;;;;;473278;252;1363;-40
2022/02/27 09:33:43;;;;;;;;;;;21.70;31.20;;;;;;473746;251;1063;-40
2022/02/27 09:35:44;;;;;;;;;;;21.70;31.30;;;;;;476061;249;1261;-40
2022/02/27 09:37:46;;;;;;;;;;;21.70;31.30;;;;;;473741;252;1118;-40
2022/02/27 09:39:47;;;;;;;;;;;21.70;31.30;;;;;;473737;251;1069;-40
2022/02/27 09:41:48;;;;;;;;;;;21.70;31.30;;;;;;476404;249;1297;-40
2022/02/27 09:43:49;;;;;;;;;;;21.70;31.30;;;;;;473571;252;2138;-40
2022/02/27 09:45:51;;;;;;;;;;;21.70;31.30;;;;;;474021;251;1410;-40
2022/02/27 09:47:52;;;;;;;;;;;21.70;31.30;;;;;;475962;249;1240;-40
2022/02/27 09:49:53;;;;;;;;;;;21.60;31.20;;;;;;473777;252;1011;-40
2022/02/27 09:51:55;;;;;;;;;;;21.60;31.20;;;;;;473714;251;1379;-40
2022/02/27 09:53:56;;;;;;;;;;;21.60;31.30;;;;;;476257;249;1156;-40
2022/02/27 09:55:57;;;;;;;;;;;21.60;31.30;;;;;;473356;252;1373;-40
2022/02/27 09:57:59;;;;;;;;;;;21.60;31.30;;;;;;473644;251;1214;-40
2022/02/27 10:00:00;;;;;;;;;;;21.70;31.20;;;;;;476065;249;1098;-40
2022/02/27 10:02:01;;;;;;;;;;;21.70;31.20;;;;;;473275;252;1384;-40
2022/02/27 10:04:03;;;;;;;;;;;21.60;31.20;;;;;;473766;251;2129;-40
2022/02/27 10:06:04;;;;;;;;;;;21.60;31.20;;;;;;476417;249;1189;-40
2022/02/27 10:08:06;;;;;;;;;;;21.60;31.30;;;;;;473280;252;1084;-40
2022/02/27 10:10:07;;;;;;;;;;;21.60;31.30;;;;;;473710;252;2398;-40
2022/02/27 10:12:08;;;;;;;;;;;21.60;31.30;;;;;;476268;249;1170;-40
2022/02/27 10:14:10;;;;;;;;;;;21.60;31.30;;;;;;473354;252;1062;-40
2022/02/27 10:16:11;;;;;;;;;;;21.60;31.30;;;;;;473707;251;1477;-40
2022/02/27 10:18:12;;;;;;;;;;;21.60;31.20;;;;;;476173;249;1106;-40
2022/02/27 10:20:13;;;;;;;;;;;21.60;31.20;;;;;;473537;252;1033;-40
2022/02/27 10:22:15;;;;;;;;;;;21.60;31.20;;;;;;474035;251;1146;-40
2022/02/27 10:24:17;;;;;;;;;;;21.60;31.20;;;;;;476242;249;2204;-40
2022/02/27 10:26:17;;;;;;;;;;;21.60;31.30;;;;;;473682;252;2203;-40
2022/02/27 10:28:19;;;;;;;;;;;21.60;31.30;;;;;;473739;251;1222;-40
2022/02/27 10:30:20;;;;;;;;;;;21.60;31.30;;;;;;476013;249;1286;-40
2022/02/27 10:32:21;;;;;;;;;;;21.60;31.30;;;;;;473669;252;1194;-40
2022/02/27 10:34:23;;;;;;;;;;;21.60;31.30;;;;;;473751;251;1273;-40
2022/02/27 10:36:24;;;;;;;;;;;21.60;31.30;;;;;;476388;249;1268;-40
2022/02/27 10:38:25;;;;;;;;;;;21.60;31.30;;;;;;473623;252;1234;-40
2022/02/27 10:40:27;;;;;;;;;;;21.60;31.30;;;;;;473771;251;1334;-40
2022/02/27 10:42:29;;;;;;;;;;;21.60;31.20;;;;;;476133;249;1169;-40
2022/02/27 10:44:29;;;;;;;;;;;21.60;31.30;;;;;;473313;252;2191;-40
2022/02/27 10:46:33;;;;;;;;;;;21.60;31.20;;;;;;473730;251;1351;-40
2022/02/27 10:48:32;;;;;;;;;;;21.60;31.20;;;;;;476148;250;2435;-40
2022/02/27 10:50:33;;;;;;;;;;;21.60;31.20;;;;;;473285;252;1200;-39
2022/02/27 10:52:35;;;;;;;;;;;21.60;31.20;;;;;;474019;251;1292;-40
2022/02/27 10:54:36;;;;;;;;;;;21.60;31.10;;;;;;476247;249;1244;-40
2022/02/27 10:56:39;;;;;;;;;;;21.60;31.10;;;;;;473218;252;1194;-40
2022/02/27 10:58:39;;;;;;;;;;;21.70;31.20;;;;;;473752;251;2485;-40
2022/02/27 11:00:40;;;;;;;;;;;21.60;31.10;;;;;;476272;249;1260;-40
2022/02/27 11:02:42;;;;;;;;;;;21.60;31.10;;;;;;473168;252;2213;-40
2022/02/27 11:04:43;;;;;;;;;;;21.60;31.10;;;;;;473696;251;1098;-40
2022/02/27 11:06:44;;;;;;;;;;;21.60;31.20;;;;;;476395;249;1301;-40
2022/02/27 11:08:45;;;;;;;;;;;21.60;31.20;;;;;;473712;252;1100;-40
2022/02/27 11:10:47;;;;;;;;;;;21.60;31.20;;;;;;473661;251;1218;-40
2022/02/27 11:12:48;;;;;;;;;;;21.60;31.10;;;;;;476340;249;1307;-40
2022/02/27 11:14:50;;;;;;;;;;;21.60;31.20;;;;;;473300;252;1063;-39
2022/02/27 11:16:51;;;;;;;;;;;21.60;31.20;;;;;;473929;251;1448;-40
2022/02/27 11:18:53;;;;;;;;;;;21.60;31.20;;;;;;476012;249;1077;-40
2022/02/27 11:20:54;;;;;;;;;;;21.60;31.20;;;;;;473244;252;1147;-40
2022/02/27 11:22:55;;;;;;;;;;;21.60;31.20;;;;;;473614;251;2799;-40
2022/02/27 11:24:56;;;;;;;;;;;21.60;31.20;;;;;;476000;249;1213;-40
2022/02/27 11:26:58;;;;;;;;;;;21.60;31.20;;;;;;473128;252;1527;-40
2022/02/27 11:28:59;;;;;;;;;;;21.60;31.10;;;;;;473881;251;1235;-40
2022/02/27 11:31:00;;;;;;;;;;;21.60;31.10;;;;;;476381;246;1197;-40
2022/02/27 11:33:05;;;;;;;;;;;21.60;31.10;;;;;;473662;252;1156;-40
2022/02/27 11:35:03;;;;;;;;;;;21.60;31.10;;;;;;473882;251;2044;-40
2022/02/27 11:37:04;;;;;;;;;;;21.60;31.10;;;;;;476334;249;1172;-40
2022/02/27 11:39:06;;;;;;;;;;;21.60;31.10;;;;;;473311;252;1199;-40
2022/02/27 11:41:07;;;;;;;;;;;21.60;31.00;;;;;;473661;251;1246;-40
2022/02/27 11:43:08;;;;;;;;;;;21.70;31.10;;;;;;476437;249;2419;-40
2022/02/27 11:45:10;;;;;;;;;;;21.60;31.00;;;;;;473737;252;1108;-40
2022/02/27 11:47:11;;;;;;;;;;;21.70;31.00;;;;;;473843;251;1270;-40
2022/02/27 11:49:13;;;;;;;;;;;21.70;31.00;;;;;;476051;249;1069;-40
2022/02/27 11:51:14;;;;;;;;;;;21.60;31.00;;;;;;473297;252;1458;-39
2022/02/27 11:53:15;;;;;;;;;;;21.70;31.00;;;;;;473709;251;1078;-40
2022/02/27 11:55:17;;;;;;;;;;;21.60;30.90;;;;;;476302;249;1220;-40
2022/02/27 11:57:18;;;;;;;;;;;21.60;31.00;;;;;;473369;252;1221;-40